Time;durP1;ratioP1;P1;durP2;ratioP2;P2;SDS_P1;SDS_P2;PMS_P1;PMS_P2;Temp;Humidity;BMP_temperature;BMP_pressure;BME280_temperature;BME280_humidity;BME280_pressure;Samples;Min_cycle;Max_cycle;Signal;HPM_P1;HPM_P2
2022/05/07 00:01:58;;;;;;;9.63;4.05;;;;;;;15.81;52.80;102401.22;4969974;28;20057;-55
2022/05/07 00:04:23;;;;;;;8.73;3.83;;;;;;;15.81;53.24;102401.22;4973823;28;20520;-56
2022/05/07 00:06:49;;;;;;;11.77;3.90;;;;;;;15.85;52.84;102396.03;4971530;28;20262;-58
2022/05/07 00:09:14;;;;;;;7.55;3.97;;;;;;;15.81;52.79;102395.97;4969014;28;20548;-57
2022/05/07 00:11:39;;;;;;;9.32;3.88;;;;;;;15.80;52.62;102402.09;4980134;28;20082;-57
2022/05/07 00:14:05;;;;;;;8.07;4.00;;;;;;;15.80;52.92;102395.94;5010910;28;20060;-57
2022/05/07 00:19:14;;;;;;;7.37;3.97;;;;;;;15.75;53.55;102390.59;4958532;28;20511;-57
2022/05/07 00:21:39;;;;;;;7.97;3.83;;;;;;;15.70;54.07;102386.13;4971931;28;20309;-57
2022/05/07 00:24:05;;;;;;;6.97;3.75;;;;;;;15.66;54.18;102377.31;4967597;28;20189;-57
2022/05/07 00:26:30;;;;;;;9.48;4.00;;;;;;;15.64;54.87;102376.41;4970132;28;20093;-58
2022/05/07 00:28:56;;;;;;;8.15;3.80;;;;;;;15.66;54.59;102371.19;4978331;28;20495;-58
2022/05/07 00:31:21;;;;;;;9.20;3.60;;;;;;;15.61;54.34;102375.47;4962958;28;20718;-58
2022/05/07 00:33:46;;;;;;;7.25;3.80;;;;;;;15.65;53.87;102378.19;4964679;28;20132;-59
2022/05/07 00:36:12;;;;;;;9.55;4.05;;;;;;;15.63;54.32;102372.00;4973686;28;20048;-59
2022/05/07 00:38:37;;;;;;;9.57;4.20;;;;;;;15.54;55.21;102369.25;4969503;28;20058;-58
2022/05/07 00:41:03;;;;;;;10.27;4.38;;;;;;;15.57;55.15;102378.91;4962963;28;20049;-58
2022/05/07 00:43:35;;;;;;;12.52;4.28;;;;;;;15.57;55.07;102382.41;4971787;28;20046;-58
2022/05/07 00:46:01;;;;;;;11.70;4.40;;;;;;;15.50;55.14;102377.00;4974575;28;20120;-58
2022/05/07 00:48:26;;;;;;;10.73;4.40;;;;;;;15.49;55.21;102381.34;4960193;28;20058;-58
2022/05/07 00:53:36;;;;;;;10.88;4.60;;;;;;;15.39;55.86;102377.69;4972358;28;20056;-57
2022/05/07 00:56:02;;;;;;;14.20;4.95;;;;;;;15.34;56.80;102379.38;4970668;28;20037;-57
2022/05/07 00:58:28;;;;;;;12.43;4.95;;;;;;;15.29;56.95;102374.88;4973310;28;20356;-57
2022/05/07 01:00:55;;;;;;;11.68;4.88;;;;;;;15.26;57.63;102373.06;4977768;28;20144;-57
2022/05/07 01:03:20;;;;;;;15.60;5.72;;;;;;;15.18;58.70;102374.72;4965737;28;20819;-58
2022/05/07 01:05:45;;;;;;;13.05;5.53;;;;;;;15.14;58.79;102370.22;4986132;28;20054;-57
2022/05/07 01:08:12;;;;;;;13.35;5.90;;;;;;;15.10;59.11;102368.41;4974636;28;20046;-59
2022/05/07 01:10:39;;;;;;;13.45;6.63;;;;;;;15.08;59.52;102367.50;4969076;28;20625;-59
2022/05/07 01:13:04;;;;;;;16.23;6.05;;;;;;;15.06;59.62;102368.34;4963692;28;20118;-59
2022/05/07 01:15:30;;;;;;;14.73;6.43;;;;;;;15.07;59.38;102370.97;4964676;28;20069;-56
2022/05/07 01:17:56;;;;;;;15.85;6.72;;;;;;;15.04;60.49;102363.03;4968317;28;20045;-57
2022/05/07 01:20:21;;;;;;;13.75;6.70;;;;;;;15.05;60.56;102367.44;4964825;28;20057;-58
2022/05/07 01:22:47;;;;;;;14.00;7.18;;;;;;;15.03;60.84;102367.41;4966376;28;20119;-57
2022/05/07 01:25:12;;;;;;;17.15;7.82;;;;;;;15.07;61.36;102367.44;4964728;28;20050;-58
2022/05/07 01:27:38;;;;;;;15.18;6.93;;;;;;;15.09;61.24;102369.25;4984645;28;20046;-57
2022/05/07 01:30:04;;;;;;;18.63;8.18;;;;;;;15.06;62.14;102368.34;4972614;28;20447;-59
2022/05/07 01:32:29;;;;;;;18.63;7.85;;;;;;;15.04;62.07;102365.66;4973987;28;20144;-56
2022/05/07 01:34:55;;;;;;;18.08;8.13;;;;;;;15.07;61.91;102370.06;4969663;28;20038;-55
2022/05/07 01:37:20;;;;;;;17.95;8.52;;;;;;;15.09;61.68;102364.00;4963775;28;20453;-56
2022/05/07 01:39:46;;;;;;;21.60;8.73;;;;;;;15.07;62.39;102359.56;4963526;28;20038;-58
2022/05/07 01:42:11;;;;;;;20.50;8.48;;;;;;;15.08;62.47;102359.59;4973701;28;20495;-57
2022/05/07 01:44:36;;;;;;;19.50;8.80;;;;;;;15.08;62.59;102358.72;4982457;28;20042;-57
2022/05/07 01:49:47;;;;;;;21.38;9.02;;;;;;;15.09;64.09;102350.88;4977127;28;20052;-57
2022/05/07 01:52:13;;;;;;;27.17;9.32;;;;;;;15.16;63.85;102349.25;4973831;28;20121;-57
2022/05/07 01:54:38;;;;;;;19.63;8.90;;;;;;;15.15;64.07;102350.09;4982395;28;20116;-58
2022/05/07 01:57:05;;;;;;;21.55;9.35;;;;;;;15.14;63.91;102353.59;4965568;28;20907;-58
2022/05/07 01:59:31;;;;;;;22.65;9.45;;;;;;;15.11;64.17;102346.53;4980898;28;20042;-57
2022/05/07 02:01:56;;;;;;;22.08;9.82;;;;;;;15.12;64.44;102345.69;4975621;28;20053;-60
2022/05/07 02:04:21;;;;;;;22.52;9.63;;;;;;;15.11;64.40;102351.81;4983633;28;20868;-58
2022/05/07 02:06:47;;;;;;;22.45;10.20;;;;;;;15.10;64.85;102357.91;4975728;28;20064;-58
2022/05/07 02:09:14;;;;;;;22.83;9.82;;;;;;;15.07;65.01;102346.44;4969033;28;20038;-58
2022/05/07 02:11:39;;;;;;;23.02;9.90;;;;;;;15.07;65.05;102349.06;4971637;28;20053;-57
2022/05/07 02:14:05;;;;;;;23.65;10.13;;;;;;;15.03;65.59;102343.78;4978829;28;20053;-57
2022/05/07 02:16:33;;;;;;;25.10;10.52;;;;;;;15.06;65.13;102342.06;4980083;28;20180;-57
2022/05/07 02:18:59;;;;;;;22.63;11.18;;;;;;;15.03;65.80;102346.41;4975919;28;20459;-57
2022/05/07 02:21:24;;;;;;;29.10;11.50;;;;;;;15.03;65.46;102346.41;4978693;28;20102;-58
2022/05/07 02:23:49;;;;;;;30.02;11.50;;;;;;;15.07;65.65;102349.06;4977683;28;20630;-57
2022/05/07 02:26:14;;;;;;;23.65;10.45;;;;;;;15.10;65.17;102344.78;4971639;28;20528;-57
2022/05/07 02:28:40;;;;;;;28.65;11.82;;;;;;;15.06;66.03;102340.34;4982674;28;20042;-57
2022/05/07 02:31:05;;;;;;;26.98;11.48;;;;;;;15.05;65.95;102348.19;4958572;28;20088;-60
2022/05/07 02:33:31;;;;;;;25.95;11.75;;;;;;;15.03;66.07;102348.13;4979305;28;20402;-57
2022/05/07 02:35:56;;;;;;;28.35;11.57;;;;;;;15.02;66.51;102351.63;4977419;28;20097;-57
2022/05/07 02:38:21;;;;;;;27.27;11.63;;;;;;;15.02;66.26;102349.00;4976583;28;20316;-58
2022/05/07 02:43:31;;;;;;;28.73;12.43;;;;;;;14.91;67.01;102355.78;4978116;28;20065;-60
2022/05/07 02:45:56;;;;;;;27.23;12.07;;;;;;;14.91;67.06;102354.06;4972753;28;20041;-57
2022/05/07 02:48:22;;;;;;;31.33;11.75;;;;;;;14.90;67.00;102360.16;5008585;28;20082;-58
2022/05/07 02:50:48;;;;;;;29.15;12.80;;;;;;;14.85;67.40;102356.56;4976868;28;20403;-59
2022/05/07 02:53:13;;;;;;;26.13;12.13;;;;;;;14.89;67.57;102357.50;4962167;28;20665;-57
2022/05/07 02:55:38;;;;;;;33.17;12.85;;;;;;;14.89;68.07;102358.38;4982141;28;20081;-57
2022/05/07 02:58:04;;;;;;;28.58;11.77;;;;;;;14.92;67.82;102371.59;4981711;28;20049;-58
2022/05/07 03:00:29;;;;;;;30.10;12.50;;;;;;;14.91;67.75;102368.91;4973746;28;20199;-56
2022/05/07 03:02:55;;;;;;;25.10;12.27;;;;;;;14.94;67.95;102364.59;4976079;28;20552;-57
2022/05/07 03:05:20;;;;;;;30.33;12.77;;;;;;;14.92;68.02;102365.44;4974509;28;20049;-58
2022/05/07 03:07:46;;;;;;;31.33;13.07;;;;;;;14.91;68.21;102367.19;4977952;28;20048;-59
2022/05/07 03:10:11;;;;;;;29.95;12.52;;;;;;;14.94;68.09;102361.13;4979299;28;20045;-58
2022/05/07 03:12:37;;;;;;;29.90;12.32;;;;;;;14.97;67.84;102355.91;4978636;28;20049;-58
2022/05/07 03:15:02;;;;;;;27.40;12.00;;;;;;;14.94;67.83;102351.47;4966289;28;20058;-59
2022/05/07 03:17:28;;;;;;;28.92;13.10;;;;;;;14.94;68.15;102358.50;4980438;28;20449;-58
2022/05/07 03:19:53;;;;;;;29.00;12.25;;;;;;;14.91;68.27;102364.56;4970045;28;20053;-56
2022/05/07 03:22:18;;;;;;;27.02;12.27;;;;;;;14.92;68.44;102358.44;4978400;28;20033;-58
2022/05/07 03:24:44;;;;;;;31.20;13.02;;;;;;;14.90;68.44;102354.91;4978927;28;20081;-55
2022/05/07 03:27:09;;;;;;;29.88;12.73;;;;;;;14.90;68.28;102362.78;4972351;28;20146;-57
2022/05/07 03:29:34;;;;;;;30.70;13.27;;;;;;;14.87;68.23;102360.09;4975030;28;20038;-57
2022/05/07 03:32:00;;;;;;;27.80;12.80;;;;;;;14.85;68.15;102366.16;4974242;28;20677;-57
2022/05/07 03:34:25;;;;;;;28.98;13.27;;;;;;;14.82;68.19;102371.38;4979930;28;20030;-57
2022/05/07 03:36:50;;;;;;;29.42;13.52;;;;;;;14.78;68.61;102361.66;4977009;28;20041;-57
2022/05/07 03:39:16;;;;;;;30.55;13.32;;;;;;;14.76;68.61;102369.47;4971802;28;20089;-59
2022/05/07 03:41:41;;;;;;;29.67;12.50;;;;;;;14.77;68.60;102366.00;4983867;28;20072;-58
2022/05/07 03:44:07;;;;;;;29.10;13.07;;;;;;;14.76;68.56;102361.63;4970469;28;20659;-59
2022/05/07 03:46:32;;;;;;;30.60;13.35;;;;;;;14.74;69.00;102365.06;4979989;28;20096;-56
2022/05/07 03:48:58;;;;;;;33.13;13.32;;;;;;;14.72;69.02;102359.78;4970849;28;20041;-57
2022/05/07 03:51:23;;;;;;;31.77;13.98;;;;;;;14.67;69.22;102368.44;4976753;28;20039;-58
2022/05/07 03:53:48;;;;;;;29.48;13.65;;;;;;;14.65;69.54;102365.75;4979121;28;20479;-58
2022/05/07 03:56:14;;;;;;;33.03;13.70;;;;;;;14.67;69.59;102371.94;4971935;28;20435;-58
2022/05/07 03:58:40;;;;;;;32.05;12.98;;;;;;;14.69;69.37;102378.13;4973991;28;20052;-57
2022/05/07 04:01:08;;;;;;;31.98;13.98;;;;;;;14.71;69.31;102376.38;4957980;28;20412;-58
2022/05/07 04:03:33;;;;;;;28.05;12.73;;;;;;;14.74;69.23;102376.47;4978825;28;20442;-57
2022/05/07 04:05:59;;;;;;;30.48;13.45;;;;;;;14.74;69.17;102379.09;4975910;28;20077;-56
2022/05/07 04:08:24;;;;;;;29.77;12.90;;;;;;;14.76;69.29;102384.38;4971470;28;20049;-57
2022/05/07 04:10:50;;;;;;;31.92;13.43;;;;;;;14.77;69.14;102384.38;4990626;28;20062;-58
2022/05/07 04:13:16;;;;;;;36.47;13.43;;;;;;;14.77;68.91;102392.28;4963543;28;20883;-57
2022/05/07 04:15:43;;;;;;;31.20;12.88;;;;;;;14.79;68.91;102389.69;4982391;28;20057;-57
2022/05/07 04:18:09;;;;;;;30.58;12.98;;;;;;;14.80;69.10;102394.97;4979305;28;20472;-57
2022/05/07 04:20:35;;;;;;;33.90;13.45;;;;;;;14.82;69.06;102395.00;4971336;28;20666;-57
2022/05/07 04:23:01;;;;;;;27.05;13.07;;;;;;;14.84;68.72;102396.78;4969293;28;20042;-60
2022/05/07 04:25:26;;;;;;;28.77;13.15;;;;;;;14.84;68.87;102396.78;4970357;28;20533;-58
2022/05/07 04:27:53;;;;;;;31.77;13.30;;;;;;;14.89;69.22;102397.75;4972331;28;20058;-58
2022/05/07 04:30:19;;;;;;;27.30;11.95;;;;;;;14.95;68.72;102395.25;4976082;28;20038;-57
2022/05/07 04:32:45;;;;;;;35.22;13.13;;;;;;;15.00;68.54;102401.47;4980056;28;20034;-57
2022/05/07 04:35:10;;;;;;;31.08;13.50;;;;;;;15.06;68.59;102405.09;4970833;28;20070;-56
2022/05/07 04:37:35;;;;;;;35.33;14.30;;;;;;;15.03;69.00;102393.69;4963311;28;20430;-57
2022/05/07 04:40:01;;;;;;;35.65;14.43;;;;;;;15.07;69.22;102388.47;4969267;28;20580;-58
2022/05/07 04:42:26;;;;;;;32.45;14.70;;;;;;;15.12;69.01;102397.34;4978568;28;20042;-56
2022/05/07 04:44:52;;;;;;;32.28;13.75;;;;;;;15.14;68.64;102393.88;4975720;28;20068;-56
2022/05/07 04:47:17;;;;;;;29.20;14.25;;;;;;;15.21;68.70;102400.13;4957351;28;20138;-58
2022/05/07 04:49:43;;;;;;;32.53;15.13;;;;;;;15.19;68.58;102402.72;4967446;28;20759;-58
2022/05/07 04:52:10;;;;;;;37.30;16.35;;;;;;;15.23;68.62;102396.69;4985506;28;20056;-59
2022/05/07 04:54:35;;;;;;;37.35;17.00;;;;;;;15.26;68.49;102394.09;4970779;28;20037;-57
2022/05/07 04:57:00;;;;;;;36.42;17.27;;;;;;;15.31;68.29;102399.44;4962372;28;20037;-60
2022/05/07 04:59:26;;;;;;;39.40;18.27;;;;;;;15.35;68.15;102393.41;4969113;28;20480;-56
2022/05/07 05:01:51;;;;;;;39.10;18.65;;;;;;;15.40;67.95;102394.34;4976680;28;20053;-59
2022/05/07 05:04:17;;;;;;;39.28;17.85;;;;;;;15.43;67.60;102402.28;4984309;28;20080;-58
2022/05/07 05:06:43;;;;;;;36.00;18.50;;;;;;;15.46;67.24;102401.47;4979901;28;20128;-57
2022/05/07 05:09:09;;;;;;;35.55;17.40;;;;;;;15.48;67.43;102410.28;4967945;28;20052;-57
2022/05/07 05:11:35;;;;;;;37.40;17.58;;;;;;;15.52;67.35;102406.81;4976295;28;20164;-58
2022/05/07 05:14:00;;;;;;;37.92;18.17;;;;;;;15.59;67.22;102419.25;4964028;28;20482;-58
2022/05/07 05:16:26;;;;;;;33.83;17.77;;;;;;;15.63;66.87;102411.44;4970252;28;20049;-56
2022/05/07 05:18:52;;;;;;;40.63;18.35;;;;;;;15.70;66.57;102423.84;4975664;28;20112;-57
2022/05/07 05:21:18;;;;;;;36.38;18.35;;;;;;;15.81;66.12;102429.25;4995712;28;20197;-58
2022/05/07 05:23:46;;;;;;;34.22;17.95;;;;;;;15.95;65.85;102424.25;4986259;28;20038;-57
2022/05/07 05:26:14;;;;;;;36.58;18.42;;;;;;;16.16;65.81;102428.06;4977268;28;20157;-58
2022/05/07 05:28:40;;;;;;;34.05;17.40;;;;;;;16.33;64.93;102430.97;4970467;28;20108;-57
2022/05/07 05:31:06;;;;;;;34.95;17.40;;;;;;;16.45;64.74;102433.78;4966891;28;20058;-58
2022/05/07 05:33:32;;;;;;;29.42;17.10;;;;;;;16.58;64.51;102430.47;4972599;28;20041;-56
2022/05/07 05:35:57;;;;;;;34.42;17.60;;;;;;;16.53;64.75;102429.47;5002894;28;20170;-59
2022/05/07 05:38:22;;;;;;;34.80;16.90;;;;;;;16.51;64.82;102433.88;4975287;28;20557;-57
2022/05/07 05:40:47;;;;;;;36.75;16.50;;;;;;;16.51;64.94;102436.50;4970977;28;20058;-58
2022/05/07 05:43:13;;;;;;;33.28;16.77;;;;;;;16.61;63.91;102440.16;4973459;28;20299;-58
2022/05/07 05:45:39;;;;;;;34.45;17.15;;;;;;;16.77;63.84;102436.84;4970685;28;20041;-57
2022/05/07 05:48:05;;;;;;;34.38;17.17;;;;;;;16.84;63.84;102433.44;4975818;28;20160;-56
2022/05/07 05:50:31;;;;;;;34.28;17.13;;;;;;;16.78;63.21;102435.09;4970439;28;20042;-56
2022/05/07 05:52:57;;;;;;;36.22;17.23;;;;;;;16.89;62.76;102430.88;4965206;28;20049;-56
2022/05/07 05:55:23;;;;;;;37.42;17.77;;;;;;;16.86;63.15;102430.81;4968912;28;20057;-58
2022/05/07 05:57:49;;;;;;;34.83;17.42;;;;;;;17.03;62.95;102429.28;4980882;28;20045;-58
2022/05/07 06:00:15;;;;;;;35.35;16.85;;;;;;;17.07;63.05;102430.22;4970511;28;20756;-57
2022/05/07 06:02:43;;;;;;;34.78;17.20;;;;;;;17.04;62.81;102429.31;4968085;28;20068;-58
2022/05/07 06:05:10;;;;;;;34.28;17.73;;;;;;;17.12;62.75;102431.16;4973813;28;20760;-58
2022/05/07 06:07:35;;;;;;;32.65;16.85;;;;;;;17.26;61.87;102438.31;4979762;28;20104;-57
2022/05/07 06:10:01;;;;;;;34.78;17.00;;;;;;;17.59;61.20;102440.41;4972067;28;20045;-59
2022/05/07 06:12:26;;;;;;;34.25;16.85;;;;;;;18.10;59.97;102437.38;4975181;28;20375;-59
2022/05/07 06:14:53;;;;;;;35.08;16.92;;;;;;;18.70;57.29;102435.13;4987770;28;20053;-58
2022/05/07 06:17:19;;;;;;;31.23;16.25;;;;;;;19.54;55.59;102441.56;4968288;28;21179;-57
2022/05/07 06:19:44;;;;;;;29.85;16.13;;;;;;;20.19;54.10;102436.25;4974581;28;20057;-56
2022/05/07 06:22:10;;;;;;;29.98;16.77;;;;;;;20.53;51.88;102435.34;4951861;28;20034;-57
2022/05/07 06:27:31;;;;;;;;;;;;;;;20.60;51.46;102444.16;4967785;28;20854;-56
2022/05/07 06:29:57;;;;;;;27.33;15.27;;;;;;;20.64;51.12;102451.19;4974618;28;20053;-58
2022/05/07 06:32:23;;;;;;;28.67;14.07;;;;;;;21.04;51.78;102438.69;4980478;28;20534;-59
2022/05/07 06:34:48;;;;;;;24.95;13.70;;;;;;;22.53;47.67;102443.72;4972242;28;20038;-57
2022/05/07 06:37:14;;;;;;;24.92;14.18;;;;;;;23.30;45.14;102443.63;4977671;28;20635;-59
2022/05/07 06:39:39;;;;;;;23.35;13.48;;;;;;;23.40;43.71;102450.59;4974938;28;20129;-58
2022/05/07 06:42:05;;;;;;;23.15;13.05;;;;;;;24.23;42.65;102443.03;4975968;28;20199;-58
2022/05/07 06:44:31;;;;;;;23.65;12.68;;;;;;;25.28;39.40;102440.88;4974989;28;20077;-58
2022/05/07 06:46:57;;;;;;;21.35;12.63;;;;;;;25.89;37.83;102442.09;4976521;28;20538;-59
2022/05/07 06:49:23;;;;;;;22.58;12.63;;;;;;;26.30;37.66;102441.03;4961683;28;20054;-59
2022/05/07 06:51:48;;;;;;;22.38;13.20;;;;;;;25.97;37.97;102446.34;4977126;28;20053;-57
2022/05/07 06:54:14;;;;;;;20.15;11.63;;;;;;;26.10;38.00;102441.56;4978219;28;20192;-58
2022/05/07 06:56:39;;;;;;;19.48;11.82;;;;;;;26.88;37.10;102442.97;4974587;28;20578;-59
2022/05/07 06:59:04;;;;;;;19.10;11.68;;;;;;;27.22;36.70;102448.19;4957146;28;20590;-59
2022/05/07 07:01:30;;;;;;;18.13;11.00;;;;;;;27.23;36.05;102440.09;4973324;28;20125;-58
2022/05/07 07:03:55;;;;;;;15.45;10.15;;;;;;;26.14;37.65;102449.47;4965451;28;20148;-58
2022/05/07 07:06:21;;;;;;;20.30;9.95;;;;;;;25.92;38.19;102452.72;4976444;28;20045;-57
2022/05/07 07:08:47;;;;;;;19.38;10.80;;;;;;;24.70;39.63;102454.59;4977193;28;20088;-58
2022/05/07 07:11:12;;;;;;;18.50;10.85;;;;;;;24.07;41.25;102463.72;4968547;28;20049;-59
2022/05/07 07:13:38;;;;;;;17.90;10.70;;;;;;;23.40;42.77;102458.56;4966686;28;20046;-59
2022/05/07 07:16:04;;;;;;;18.75;10.75;;;;;;;22.69;44.47;102462.16;4975198;28;20280;-59
2022/05/07 07:18:31;;;;;;;20.02;11.55;;;;;;;22.81;44.84;102456.72;4974744;28;20571;-58
2022/05/07 07:20:56;;;;;;;15.88;9.50;;;;;;;23.10;45.04;102456.34;4975050;28;20122;-57
2022/05/07 07:23:22;;;;;;;16.85;10.10;;;;;;;23.63;45.28;102458.25;4965230;28;20119;-59
2022/05/07 07:25:47;;;;;;;19.10;11.18;;;;;;;24.88;41.00;102454.22;4973534;28;20454;-58
2022/05/07 07:28:13;;;;;;;17.42;10.52;;;;;;;25.36;40.21;102455.84;4974892;28;20117;-57
2022/05/07 07:30:39;;;;;;;18.17;11.43;;;;;;;25.67;40.42;102457.81;4978488;28;20866;-58
2022/05/07 07:33:07;;;;;;;21.85;12.05;;;;;;;25.89;38.95;102460.81;4971690;28;20034;-57
2022/05/07 07:35:32;;;;;;;21.98;12.20;;;;;;;26.85;37.59;102454.63;4979440;28;20510;-58
2022/05/07 07:37:58;;;;;;;16.27;10.50;;;;;;;27.62;36.47;102455.88;4975836;28;20048;-57
2022/05/07 07:40:23;;;;;;;20.23;12.27;;;;;;;27.33;35.59;102457.63;4977232;28;20461;-58
2022/05/07 07:42:48;;;;;;;20.33;11.25;;;;;;;27.65;36.20;102462.00;4976547;28;20139;-57
2022/05/07 07:48:05;;;;;;;18.38;11.93;;;;;;;27.75;34.97;102459.91;4970420;28;20060;-59
2022/05/07 07:50:34;;;;;;;20.73;11.48;;;;;;;28.35;35.19;102464.13;4974345;28;20054;-59
2022/05/07 07:53:04;;;;;;;18.02;11.52;;;;;;;28.20;34.32;102463.72;4972500;28;20565;-57
2022/05/07 07:55:30;;;;;;;18.13;12.00;;;;;;;28.91;33.38;102462.91;4969214;28;20057;-59
2022/05/07 07:57:57;;;;;;;17.27;11.00;;;;;;;27.75;34.79;102465.28;4975721;28;20050;-58
2022/05/07 08:00:24;;;;;;;17.02;11.02;;;;;;;27.39;36.44;102475.31;4991382;28;20422;-59
2022/05/07 08:02:59;;;;;;;16.10;9.80;;;;;;;27.93;36.31;102470.00;4964963;28;20050;-59
2022/05/07 08:05:27;;;;;;;17.20;11.70;;;;;;;28.24;33.98;102469.84;4973928;28;20042;-57
2022/05/07 08:13:21;;;;;;;20.92;10.55;;;;;;;28.27;34.39;102466.19;4968902;28;20524;-55
2022/05/07 08:15:47;;;;;;;19.10;10.65;;;;;;;27.87;34.33;102470.22;4971684;28;20033;-58
2022/05/07 08:18:13;;;;;;;15.30;9.10;;;;;;;28.38;34.26;102472.91;4965799;28;20430;-57
2022/05/07 08:20:41;;;;;;;19.73;11.57;;;;;;;27.40;37.61;102477.06;4963284;28;20049;-58
2022/05/07 08:23:07;;;;;;;15.43;10.10;;;;;;;27.54;36.06;102479.34;4964431;28;20070;-59
2022/05/07 08:25:33;;;;;;;19.63;11.07;;;;;;;25.98;36.97;102476.63;4975830;28;20041;-57
2022/05/07 08:27:58;;;;;;;18.02;11.20;;;;;;;25.58;38.39;102474.03;4978410;28;20050;-57
2022/05/07 08:30:24;;;;;;;16.58;11.13;;;;;;;24.85;40.55;102472.94;4975051;28;20398;-58
2022/05/07 08:32:49;;;;;;;17.88;10.45;;;;;;;25.20;40.17;102478.44;4986627;28;20088;-57
2022/05/07 08:35:15;;;;;;;21.13;11.52;;;;;;;24.72;40.54;102482.09;4971101;28;20426;-58
2022/05/07 08:37:41;;;;;;;17.02;10.30;;;;;;;24.71;41.56;102485.66;4995434;28;20104;-58
2022/05/07 08:40:07;;;;;;;19.55;10.93;;;;;;;24.74;40.41;102481.16;4970890;28;20086;-57
2022/05/07 08:42:36;;;;;;;19.88;12.18;;;;;;;24.29;40.89;102482.03;4972891;28;20580;-57
2022/05/07 08:45:02;;;;;;;19.13;11.80;;;;;;;24.19;42.79;102484.88;4973204;28;20059;-58
2022/05/07 08:47:28;;;;;;;20.08;11.75;;;;;;;24.04;42.19;102485.09;4974196;28;20502;-59
2022/05/07 08:49:53;;;;;;;20.00;11.98;;;;;;;24.20;44.53;102491.06;4970420;28;20054;-57
2022/05/07 08:52:19;;;;;;;20.63;12.73;;;;;;;24.31;42.48;102493.53;4967812;28;20049;-57
2022/05/07 08:54:45;;;;;;;23.38;12.88;;;;;;;24.34;42.61;102496.13;4959488;28;20617;-58
2022/05/07 08:57:11;;;;;;;20.30;11.32;;;;;;;24.48;41.98;102491.44;4968121;28;20439;-58
2022/05/07 08:59:37;;;;;;;20.58;11.90;;;;;;;24.47;41.25;102497.69;4959376;28;20050;-59
2022/05/07 09:02:03;;;;;;;19.20;11.02;;;;;;;24.46;42.48;102496.78;4967742;28;21012;-56
2022/05/07 09:04:28;;;;;;;19.70;11.90;;;;;;;24.44;41.48;102498.63;4972865;28;20046;-57
2022/05/07 09:07:03;;;;;;;21.60;12.82;;;;;;;24.32;42.25;102503.31;4977403;28;20042;-58
2022/05/07 09:09:31;;;;;;;20.13;12.02;;;;;;;24.43;42.97;102510.19;5001864;28;20060;-57
2022/05/07 09:11:57;;;;;;;22.33;12.65;;;;;;;24.63;42.06;102509.84;4974957;28;20078;-59
2022/05/07 09:14:29;;;;;;;23.13;13.48;;;;;;;24.37;42.39;102512.97;4975683;28;20579;-57
2022/05/07 09:16:58;;;;;;;23.48;13.32;;;;;;;24.40;41.15;102514.69;4967589;28;20183;-57
2022/05/07 09:19:27;;;;;;;25.25;13.57;;;;;;;24.39;41.14;102511.16;4961489;28;20380;-58
2022/05/07 09:22:13;;;;;;;22.65;14.55;;;;;;;23.93;41.32;102507.47;4971230;28;20914;-57
2022/05/07 09:24:40;;;;;;;21.20;12.82;;;;;;;23.98;41.88;102506.50;4970423;28;20136;-58
2022/05/07 09:27:05;;;;;;;24.13;13.20;;;;;;;23.88;41.22;102510.22;4962475;28;20076;-58
2022/05/07 09:29:32;;;;;;;25.40;13.93;;;;;;;23.72;42.16;102516.72;4973423;28;20130;-57
2022/05/07 09:32:13;;;;;;;22.33;12.57;;;;;;;23.65;42.44;102509.72;4969290;28;20130;-57
2022/05/07 09:37:35;;;;;;;20.10;11.95;;;;;;;23.73;42.50;102511.31;4974641;28;20676;-58
2022/05/07 09:40:06;;;;;;;23.02;12.25;;;;;;;23.97;41.84;102519.88;4982363;28;20042;-57
2022/05/07 09:42:32;;;;;;;22.33;11.90;;;;;;;24.04;40.94;102509.06;4968979;28;20116;-57
2022/05/07 09:44:59;;;;;;;20.20;11.55;;;;;;;24.12;40.60;102508.94;4962559;28;20045;-58
2022/05/07 09:47:27;;;;;;;20.73;11.45;;;;;;;24.54;41.07;102510.00;4976332;28;20488;-56
2022/05/07 09:57:30;;;;;;;20.15;11.15;;;;;;;25.19;39.49;102508.69;4969500;28;20144;-56
2022/05/07 09:58:09;;;;;;;22.02;13.50;;;;;;;24.80;38.82;102514.84;4968551;28;20469;-59
2022/05/07 10:00:40;;;;;;;20.92;13.23;;;;;;;24.83;39.60;102510.31;4974659;28;20144;-57
2022/05/07 10:03:46;;;;;;;20.70;13.02;;;;;;;24.84;39.33;102516.53;4970553;28;20129;-58
2022/05/07 10:06:27;;;;;;;21.83;12.57;;;;;;;24.86;39.74;102518.25;4960169;28;20038;-57
2022/05/07 10:09:12;;;;;;;25.70;14.35;;;;;;;24.53;39.49;102519.78;4978919;28;20242;-57
2022/05/07 10:11:38;;;;;;;22.98;13.48;;;;;;;24.21;40.48;102533.66;4975971;28;20453;-58
2022/05/07 10:14:03;;;;;;;24.42;14.10;;;;;;;23.85;40.63;102531.56;4980786;28;20042;-57
2022/05/07 10:16:32;;;;;;;20.38;11.88;;;;;;;24.02;40.61;102526.00;4965136;28;20045;-56
2022/05/07 10:19:12;;;;;;;25.67;15.40;;;;;;;24.10;41.03;102526.72;4964657;28;20576;-59
2022/05/07 10:21:38;;;;;;;21.27;13.55;;;;;;;24.24;41.31;102530.09;4973577;28;20042;-58
2022/05/07 10:24:05;;;;;;;22.08;13.40;;;;;;;24.33;41.21;102529.94;4969275;28;20038;-58
2022/05/07 10:26:39;;;;;;;21.70;13.07;;;;;;;24.34;41.51;102533.47;4971547;28;20030;-58
2022/05/07 10:29:04;;;;;;;;;;;;;;;24.42;41.16;102528.88;4995395;28;20046;-58
2022/05/07 10:31:30;;;;;;;21.63;13.63;;;;;;;24.25;40.19;102531.84;4978034;28;20288;-57
2022/05/07 10:33:55;;;;;;;22.85;13.30;;;;;;;24.24;41.13;102535.41;4975469;28;20050;-57
2022/05/07 10:36:21;;;;;;;19.95;12.30;;;;;;;24.46;40.89;102527.91;4977922;28;20065;-58
2022/05/07 10:38:47;;;;;;;23.02;13.52;;;;;;;24.31;40.54;102530.88;4979426;28;20581;-57
2022/05/07 10:41:12;;;;;;;19.95;11.70;;;;;;;24.61;40.66;102532.97;4970990;28;20045;-57
2022/05/07 10:43:39;;;;;;;22.48;13.00;;;;;;;23.83;40.35;102528.06;4991747;28;20038;-58
2022/05/07 10:46:16;;;;;;;19.35;12.05;;;;;;;23.81;42.86;102535.19;4977831;28;20041;-58
2022/05/07 10:48:57;;;;;;;21.67;13.10;;;;;;;23.83;43.00;102528.94;4965447;28;20054;-56
2022/05/07 10:51:26;;;;;;;20.90;12.55;;;;;;;23.78;42.13;102532.59;4967013;28;20591;-59
2022/05/07 10:53:52;;;;;;;25.40;15.57;;;;;;;23.60;42.56;102533.75;4976611;28;20309;-57
2022/05/07 10:56:20;;;;;;;23.00;14.25;;;;;;;23.63;43.19;102535.47;4964962;28;20086;-57
2022/05/07 10:58:48;;;;;;;24.13;14.45;;;;;;;23.68;43.43;102531.81;4967406;28;20054;-58
2022/05/07 11:01:15;;;;;;;24.17;14.15;;;;;;;23.63;43.26;102533.69;4965257;28;20436;-58
2022/05/07 11:03:41;;;;;;;22.77;13.63;;;;;;;23.63;43.12;102532.81;4978180;28;20037;-59
2022/05/07 11:06:06;;;;;;;21.02;12.68;;;;;;;23.59;43.55;102534.66;4965311;28;20038;-57
2022/05/07 11:08:32;;;;;;;25.02;15.27;;;;;;;23.62;42.60;102537.25;4963134;28;20469;-59
2022/05/07 11:11:08;;;;;;;28.42;15.43;;;;;;;23.66;42.88;102535.44;4967705;28;20054;-58
2022/05/07 11:13:45;;;;;;;18.30;11.88;;;;;;;23.63;42.25;102524.81;4974360;28;20441;-59
2022/05/07 11:16:11;;;;;;;20.52;12.30;;;;;;;23.71;43.51;102537.13;4978512;28;20045;-58
2022/05/07 11:18:36;;;;;;;18.40;11.90;;;;;;;23.67;43.16;102535.38;4974997;28;20482;-61
2022/05/07 11:21:05;;;;;;;18.65;12.48;;;;;;;23.68;42.76;102539.81;4957149;28;20349;-56
2022/05/07 11:23:36;;;;;;;22.85;13.05;;;;;;;23.76;43.90;102529.06;4976091;28;20502;-57
2022/05/07 11:26:16;;;;;;;24.10;14.35;;;;;;;23.57;43.19;102528.44;4980943;28;20442;-58
2022/05/07 11:28:43;;;;;;;28.17;17.30;;;;;;;23.43;43.56;102531.25;4974190;28;20114;-59
2022/05/07 11:31:10;;;;;;;29.63;18.05;;;;;;;23.52;43.74;102532.97;4970808;28;20077;-57
2022/05/07 11:33:37;;;;;;;28.77;17.60;;;;;;;23.65;44.81;102534.56;4977839;28;20045;-60
2022/05/07 11:36:07;;;;;;;32.28;20.10;;;;;;;23.47;43.40;102540.13;4966627;28;20049;-58
2022/05/07 11:38:34;;;;;;;25.85;15.95;;;;;;;23.52;45.04;102534.75;4978569;28;20445;-58
2022/05/07 11:41:13;;;;;;;25.27;16.42;;;;;;;23.74;44.02;102529.06;4974901;28;20185;-58